Downloads

-JavaCPC -demo -emu -j-cpc_ani -tools 0-9 A B C D E F G H I J K L M N O P Q R S T U V W X Y Z ZZZ_UNK roms
FILEDATESIZEDLs
KTris by Richard Wilson (PD).zip 2017-04-21 16:14 2 Kb330
Kaiser (G) (19xx).zip 2017-04-21 16:13 91 Kb395
Kane & Nebulus & Renaud - Marche a l'Ombre.zip 2017-04-21 16:13 95 Kb241
Kane (UK) (1986).zip 2017-04-21 16:13 28 Kb349
Kane (UK) (1986) [a1].zip 2017-04-21 16:13 80 Kb353
Kane (UK) (1986) [a2].zip 2017-04-21 16:13 38 Kb319
Kane (UK) (1986) [t1].zip 2017-04-21 16:13 38 Kb352
Karateka (F) (1986).zip 2017-04-21 16:13 50 Kb339
Karateka (F) (1986) [f1].zip 2017-04-21 16:13 50 Kb349
Karateka (F) (1986) [t1].zip 2017-04-21 16:13 50 Kb336
Karateka (F) (1990).zip 2017-04-21 16:13 49 Kb330
Karateka (F) (1990) [t1].zip 2017-04-21 16:13 49 Kb339
Karateka (F).dsk 2017-04-21 16:13 192 Kb336
Karl's Treasure Hunt (UK) (1984).zip 2017-04-21 16:13 11 Kb345
Karl's Treasure Hunt (UK) (1984) [a1].zip 2017-04-21 16:13 84 Kb337
Karl's Treasure Hunt (UK) (1984) [a2].zip 2017-04-21 16:13 11 Kb329
Karnov (E) - Disk 1A.dsk 2017-04-21 16:13 214 Kb313
Karnov (E) - Disk 1B.dsk 2017-04-21 16:13 214 Kb308
Karnov (UK) (1988) (Disk 1 of 2).zip 2017-04-21 16:13 73 Kb278
Karnov (UK) (1988) (Disk 1 of 2) [a1].zip 2017-04-21 16:13 56 Kb274
Karnov (UK) (1988) (Disk 1 of 2) [t1].zip 2017-04-21 16:13 159 Kb286
Karnov (UK) (1988) (Disk 1 of 2) [t2].zip 2017-04-21 16:13 73 Kb269
Karnov (UK) (1988) (Disk 2 of 2).zip 2017-04-21 16:13 62 Kb283
Karnov (UK) (1988) (Disk 2 of 2) [a1].zip 2017-04-21 16:13 105 Kb279
Karnov (UK) (1988) (Disk 2 of 2) [t2].zip 2017-04-21 16:13 62 Kb314
Kat Trap (E).dsk 2017-04-21 16:13 91 Kb273
Kat Trap (UK) (1987).zip 2017-04-21 16:13 34 Kb282
Keep Yourself Alive (F) (1987).zip 2017-04-21 16:13 19 Kb286
Kenny Dalglish Soccer Manager (E).cdt 2017-04-21 16:13 57 Kb285
Kenny Dalglish Soccer Manager (UK) (1989).zip 2017-04-21 16:13 25 Kb276
Kenny Dalglish Soccer Match (UK) (1990).zip 2017-04-21 16:13 29 Kb275
Kentilla (UK) (1985).zip 2017-04-21 16:13 23 Kb285
Kentilla (UK) (1985) [a1].zip 2017-04-21 16:13 30 Kb281
Kentucky Racing (E).cdt 2017-04-21 16:13 45 Kb283
Kentucky Racing (UK) (1990).zip 2017-04-21 16:13 24 Kb280
Kentucky Racing (UK) (1990) [f1].zip 2017-04-21 16:13 24 Kb285
Kessia (F) (19xx).zip 2017-04-21 16:13 72 Kb277
Kettle (E).dsk 2017-04-21 16:13 193 Kb271
Kettle (UK) (1986).zip 2017-04-21 16:13 21 Kb288
Kevin Thacker's CPC Guide (UK) (19xx) (PD) (Disk 1 of 2).zip 2017-04-21 16:13 47 Kb270
Kevin Thacker's CPC Guide (UK) (19xx) (PD) (Disk 2 of 2).zip 2017-04-21 16:13 41 Kb277
Key Factor, The (UK) (1985).zip 2017-04-21 16:13 13 Kb278
Kick Off (UK,F,G,S,I) (1990).zip 2017-04-21 16:13 27 Kb281
Kick Off (UK,F,G,S,I) (1990) [a1].zip 2017-04-21 16:13 131 Kb277
Kick Off (UK,F,G,S,I) (1990) [a2].zip 2017-04-21 16:13 31 Kb273
Kick Off 2 (E) - Disk 1A.dsk 2017-04-21 16:13 178 Kb285
Kick Off 2 (E) - Disk 1B.dsk 2017-04-21 16:13 178 Kb279
Kick Off 2 (F) (1990).zip 2017-04-21 16:13 68 Kb279
Kick Off 2 (F) (1990) [a1].zip 2017-04-21 16:13 68 Kb279
Kikstart II (UK) (1988).zip 2017-04-21 16:13 24 Kb290
Kikstart II (UK) (1988) [a1].zip 2017-04-21 16:13 23 Kb286
Killapede (UK) (1986).zip 2017-04-21 16:13 26 Kb278
Killapede (UK) (1986) [a1].zip 2017-04-21 16:13 26 Kb273
Killapede (UK) (1986) [a2].zip 2017-04-21 16:13 32 Kb285
Killapede (UK) (1986) [a3].zip 2017-04-21 16:13 30 Kb309
Killed Until Dead (UK) (1987) (Disk 1 of 2).zip 2017-04-21 16:13 50 Kb270
Killed Until Dead (UK) (1987) (Disk 2 of 2).zip 2017-04-21 16:13 62 Kb272
Killer Ball (UK) (1991).zip 2017-04-21 16:14 103 Kb282
Killer Ball (UK) (1991) [a1].zip 2017-04-21 16:13 103 Kb278
Killer Ball (UK) (1991) [a2].zip 2017-04-21 16:13 76 Kb280
Killer Ball (UK) (1991) [a3].zip 2017-04-21 16:13 96 Kb277
Killer Cobra (E).cdt 2017-04-21 16:14 49 Kb278
Killer Cobra (UK) (1987).zip 2017-04-21 16:14 27 Kb284
Killer Cobra (UK) (1987) [a1].zip 2017-04-21 16:14 27 Kb284
Killer Cobra (UK) (1987) [a2].zip 2017-04-21 16:14 31 Kb276
Killer Gorilla & Knight Lore & Laserwarp & Molecule Man & Zaxx (F).zip 2017-04-21 16:14 82 Kb185
Killer Gorilla (UK) (1984).zip 2017-04-21 16:14 19 Kb280
Killer Gorilla (UK) (1984) [a1].zip 2017-04-21 16:14 19 Kb286
Killer Gorilla (UK) (1984) [a2].zip 2017-04-21 16:14 15 Kb292
Killer Gorilla (UK) (1984) [a3].zip 2017-04-21 16:14 18 Kb285
Killer Gorilla (UK) (1984) [b1].zip 2017-04-21 16:14 19 Kb281
Killer Gorilla (UK) (1984) [b2].zip 2017-04-21 16:14 19 Kb283
Killer Ring (UK) (1987).zip 2017-04-21 16:14 16 Kb287
Killer Ring (UK) (1987) [a1].zip 2017-04-21 16:14 16 Kb287
Kiloroid (UK) (19xx).zip 2017-04-21 16:14 2 Kb280
Kim (F) (1986).zip 2017-04-21 16:14 9 Kb286
Kinetic (UK) (1987).zip 2017-04-21 16:14 35 Kb279
Kinetic (UK) (1987) [a1].zip 2017-04-21 16:14 36 Kb284
Kinetic (UK) (1987) [a2].zip 2017-04-21 16:14 35 Kb287
Kinetik (E).dsk 2017-04-21 16:14 195 Kb297
Kingdom of Hamil (UK) (1987).zip 2017-04-21 16:14 57 Kb281
Kingdoms (UK) (1985).zip 2017-04-21 16:14 5 Kb279
Kit de Telechargement - Telecharge Amstrad CPC (F).dsk 2017-04-21 16:14 217 Kb282
Kit de Telechargement pour Amstrad CPC (F).dsk 2017-04-21 16:14 191 Kb294
Klax & Meynaumede (F) & Nervous Break Down (F) & Skweek.zip 2017-04-21 16:14 97 Kb186
Klax (E).dsk 2017-04-21 16:14 172 Kb281
Klax (UK) (1990) (CPM).zip 2017-04-21 16:14 44 Kb271
Klax (UK) (1990) (CPM) [a1].zip 2017-04-21 16:14 44 Kb290
Klax (UK) (1990) (CPM Version).zip 2017-04-21 16:14 43 Kb272
Klax (UK) (1990) (CPM Version) [a1].zip 2017-04-21 16:14 43 Kb280
Klax (UK) (1990) (Cart).zip 2017-04-21 16:14 41 Kb285
Klax (UK) (1990).zip 2017-04-21 16:14 42 Kb276
Klax (UK) (1990) [a1].zip 2017-04-21 16:14 42 Kb286
Klax (UK) (1990) [h1].zip 2017-04-21 16:14 52 Kb275
Klax (UK) (1990) [h2].zip 2017-04-21 16:14 54 Kb285
Knaves and thou Prisoners (UK) (19xx).zip 2017-04-21 16:14 8 Kb269
Knight Force (F) (1989) (Disk 1 of 2).zip 2017-04-21 16:14 54 Kb277
Knight Force (F) (1989) (Disk 1 of 2) [t1].zip 2017-04-21 16:14 55 Kb269
Knight Force (F) (1989) (Disk 1 of 2) [t2] & Power Drift.zip 2017-04-21 16:14 108 Kb172
Knight Force (F) (1989) (Disk 1 of 2) [t2].zip 2017-04-21 16:14 75 Kb269
Knight Force (F) (1989) (Disk 2 of 2).zip 2017-04-21 16:14 76 Kb278
Knight Force (F) - Disk 1A.dsk 2017-04-21 16:14 456 Kb275
Knight Force (F) - Disk 1B.dsk 2017-04-21 16:14 627 Kb275
Knight Games (E) - Side A.cdt 2017-04-21 16:14 166 Kb282
Knight Games (E) - Side B.cdt 2017-04-21 16:14 142 Kb276
Knight Games (UK) (1986) (Disk 1 of 2).zip 2017-04-21 16:14 88 Kb285
Knight Games (UK) (1986) (Disk 1 of 2) [a1].zip 2017-04-21 16:14 83 Kb271
Knight Games (UK) (1986) (Disk 1 of 2) [a2].zip 2017-04-21 16:14 83 Kb274
Knight Games (UK) (1986) (Disk 1 of 2) [a3].zip 2017-04-21 16:14 103 Kb269
Knight Games (UK) (1986) (Disk 2 of 2).zip 2017-04-21 16:14 94 Kb281
Knight Games (UK) (1986) (Disk 2 of 2) [a1].zip 2017-04-21 16:14 76 Kb278
Knight Games (UK) (1986) (Disk 2 of 2) [a2].zip 2017-04-21 16:14 79 Kb274
Knight Games (UK) (1986) (Disk 2 of 2) [a3].zip 2017-04-21 16:14 109 Kb272
Knight Games (UK) (1986) [f1][t1].zip 2017-04-21 16:14 179 Kb274
Knight Lore (E).cdt 2017-04-21 16:14 42 Kb281
Knight Lore (UK) (1984).zip 2017-04-21 16:14 25 Kb295
Knight Lore (UK) (1984) [a1].zip 2017-04-21 16:14 25 Kb275
Knight Lore (UK) (1984) [a2].zip 2017-04-21 16:14 25 Kb285
Knight Moves (F) (19xx) (Disk 1 of 2).zip 2017-04-21 16:14 60 Kb276
Knight Moves (F) (19xx) (Disk 2 of 2).zip 2017-04-21 16:14 83 Kb278
Knight Orc (E) - Disk 1A.dsk 2017-04-21 16:14 194 Kb273
Knight Orc (E) - Disk 1B.dsk 2017-04-21 16:14 199 Kb272
Knight Orc (UK) (1987) (Disk 1 of 2).zip 2017-04-21 16:14 119 Kb286
Knight Orc (UK) (1987) (Disk 2 of 2).zip 2017-04-21 16:14 110 Kb281
Knight Rider (E).cdt 2017-04-21 16:14 45 Kb280
Knight Rider (UK) (1986).zip 2017-04-21 16:14 20 Kb276
Knight Rider (UK) (1986) [h1].zip 2017-04-21 16:14 32 Kb276
Knight Rider (UK) (1986) [h2].zip 2017-04-21 16:14 21 Kb283
Knight Tyme (E).cdt 2017-04-21 16:14 57 Kb283
Knight Tyme (UK) (1986).zip 2017-04-21 16:14 31 Kb288
Knight Tyme (UK) (1986) [a1].zip 2017-04-21 16:14 31 Kb282
Knight Tyme (UK) (1986) [t1].zip 2017-04-21 16:14 31 Kb272
Knightmare (E).dsk 2017-04-21 16:14 213 Kb290
Knightmare (UK) (1987).zip 2017-04-21 16:14 29 Kb278
Knightmare (UK) (1987) [a1].zip 2017-04-21 16:14 30 Kb276
Knightmare (UK) (1987) [a2].zip 2017-04-21 16:14 30 Kb287
Knightmare (UK) (1987) [t1].zip 2017-04-21 16:14 33 Kb278
Know (G).dsk 2017-04-21 16:14 192 Kb296
Kobayashi Naru (UK) (19xx).zip 2017-04-21 16:14 31 Kb290
Kobayashi Naru (UK) (1987).zip 2017-04-21 16:14 31 Kb292
Kobayashi Naru (UK) (1987) [a1].zip 2017-04-21 16:14 31 Kb276
Kobayashi Naru (UK) (1987) [a2].zip 2017-04-21 16:14 48 Kb302
Kokotoni Wilf (UK) (19xx).zip 2017-04-21 16:14 137 Kb289
Kokotoni Wilf (UK) (19xx) [a1].zip 2017-04-21 16:14 35 Kb286
Kokotoni Wilf (UK) (19xx) [f1][t1].zip 2017-04-21 16:14 37 Kb281
Konami's Golf (UK) (1986).zip 2017-04-21 16:14 24 Kb275
Konami's Golf (UK) (1986) [a1].zip 2017-04-21 16:14 24 Kb278
Konami's Golf (UK) (1986) [a2].zip 2017-04-21 16:14 26 Kb287
Konami Coin-op Hits (UK) (19xx) (Disk 1 of 2).zip 2017-04-21 16:14 50 Kb283
Konami Coin-op Hits (UK) (19xx) (Disk 1 of 2) [a1].zip 2017-04-21 16:14 50 Kb270
Konami Coin-op Hits (UK) (19xx) (Disk 2 of 2).zip 2017-04-21 16:14 65 Kb272
Konami Coin-op Hits (UK) (19xx) (Disk 2 of 2) [a1].zip 2017-04-21 16:14 65 Kb290
Konami Coin-op Hits (UK) (19xx) (Disk 2 of 2) [a2].zip 2017-04-21 16:14 65 Kb271
Kong Strikes Back (UK) (1985).zip 2017-04-21 16:14 21 Kb294
Kong Strikes Back (UK) (1985) [a1].zip 2017-04-21 16:14 21 Kb296
Kong Strikes Back (UK) (1985) [a2].zip 2017-04-21 16:14 23 Kb280
Koronis Rift (E).dsk 2017-04-21 16:14 186 Kb276
Koronis Rift (UK) (1987).zip 2017-04-21 16:14 57 Kb284
Krakout (E).cdt 2017-04-21 16:14 64 Kb289
Krakout (E).dsk 2017-04-21 16:14 171 Kb283
Krakout (UK) (1987).zip 2017-04-21 16:14 31 Kb286
Krakout (UK) (1987) [h1].zip 2017-04-21 16:14 34 Kb284
Kristal (F).dsk 2017-04-21 16:14 191 Kb285
Kristal (UK) (1985).zip 2017-04-21 16:14 16 Kb289
Kristax (UK) (1989).zip 2017-04-21 16:14 9 Kb288
Krypton Factor (UK) (1987) (Disk 1 of 2).zip 2017-04-21 16:14 52 Kb274
Krypton Factor (UK) (1987) (Disk 1 of 2) [a1].zip 2017-04-21 16:14 47 Kb284
Krypton Factor (UK) (1987) (Disk 2 of 2).zip 2017-04-21 16:14 5 Kb277
Krypton Factor (UK) (1987) (Disk 2 of 2) [a1].zip 2017-04-21 16:14 21 Kb282
Kung-Fu (UK) (1986).zip 2017-04-21 16:14 19 Kb287
Kung-Fu Master (E).dsk 2017-04-21 16:14 191 Kb278
Kung-Fu Master (UK) (1986).zip 2017-04-21 16:14 28 Kb294
Kung-Fu Master (UK) (1986) [h1].zip 2017-04-21 16:14 22 Kb284
Kwah (UK) (1987).zip 2017-04-21 16:14 36 Kb273
Kwik Snax (E).cdt 2017-04-21 16:14 65 Kb296
Kwik Snax (UK) (1990).zip 2017-04-21 16:14 22 Kb280
Kwik Snax (UK) (1990) [f1].zip 2017-04-21 16:14 33 Kb291
Kwik Snax (UK) (1990) [h1].zip 2017-04-21 16:14 41 Kb281
Kwik Snax (UK) (1990) [t1].zip 2017-04-21 16:14 33 Kb287
kobayashi Naru (E).cdt 2017-04-21 16:14 74 Kb282
180 Files
-JavaCPC -demo -emu -j-cpc_ani -tools 0-9 A B C D E F G H I J K L M N O P Q R S T U V W X Y Z ZZZ_UNK roms